Flight Track Log - Related Links

Times and Time Zones

All times are in EDT time to prevent confusion due to time zone crossing. See the TCF5894 flight status page for this flight to view local times or setup timezone preferences in your user account.

Time Position Orientation Groundspeed Altitude Reporting Facility
EDT Latitude Longitude Course Direction KTS MPH feet Rate Location/Type
Tue 08:59:14 PM 40.7333 -73.8333 48° Northeast 175 201 1,700  Level New York TRACON
Tue 09:01:00 PM 41.0394 -73.5513 41° Northeast  Level FlightAware Approximate
Tue 09:01:40 PM 40.8383 -73.7350 35° Northeast 215 247 6,500  Level Boston Center
Tue 09:02:00 PM 41.1075 -73.4689 44° Northeast  Level FlightAware Approximate
Tue 09:02:40 PM 40.9033 -73.6869 29° Northeast 239 275 10,000  Level Boston Center
Tue 09:03:00 PM 41.1738 -73.3838 44° Northeast  Level FlightAware Approximate
Tue 09:03:40 PM 40.9728 -73.6331 30° Northeast 263 303 11,400  Level Boston Center
Tue 09:04:00 PM 41.2315 -73.3028 48° Northeast  Level FlightAware Approximate
Tue 09:04:39 PM 41.0419 -73.5822 29° Northeast 315 362 13,000  Level Boston Center
Tue 09:05:40 PM 41.1431 -73.4958 33° Northeast 358 412 16,000 2,650 Climbing Boston Center
Tue 09:06:39 PM 41.1858 -73.3558 68° East 363 418 18,300 1,500 Climbing Boston Center
Tue 09:07:40 PM 41.2242 -73.2350 67° East 375 432 19,000 350 Climbing Boston Center
Tue 09:08:39 PM 41.2647 -73.0944 69° East 388 447 19,000  Level Boston Center
Tue 09:09:40 PM 41.3031 -72.9594 69° East 394 453 19,000  Level Boston Center
Tue 09:10:40 PM 41.3453 -72.8078 70° East 394 453 19,000  Level Boston Center
Tue 09:11:40 PM 41.3811 -72.6808 69° East 394 453 19,000  Level Boston Center
Tue 09:12:40 PM 41.4250 -72.5286 69° East 394 453 19,000  Level Boston Center
Tue 09:13:40 PM 41.4583 -72.4042 70° East 389 448 19,000  Level Boston Center
Tue 09:14:40 PM 41.5000 -72.2628 68° East 394 453 19,000  Level Boston Center
Tue 09:15:39 PM 41.5414 -72.1100 70° East 394 453 19,000 -600 Level Boston Center
Tue 09:16:40 PM 41.5764 -71.9850 69° East 394 453 17,800 -1,550 Descending Boston Center
Tue 09:17:39 PM 41.6153 -71.8347 71° East 386 444 15,900 -1,650 Descending Boston Center
Tue 09:18:40 PM 41.6478 -71.7206 69° East 373 429 14,500 -1,488 Descending Boston Center
Tue 09:19:40 PM 41.6822 -71.5894 71° East 353 406 12,900 -1,550 Descending Boston Center
Tue 09:20:40 PM 41.7106 -71.4833 70° East 313 360 11,400 -1,000 Descending Boston Center
Tue 09:21:40 PM 41.7517 -71.3967 58° Northeast 281 323 10,900 -250 Descending Boston Center
Tue 09:22:40 PM 41.8072 -71.3233 45° Northeast 273 314 10,900 -450 Level Boston Center
Tue 09:23:40 PM 41.8669 -71.2553 40° Northeast 280 322 10,000 -1,450 Descending Boston Center
Tue 09:24:40 PM 41.9375 -71.2178 22° Northeast 269 310 8,000 -1,700 Descending Boston Center
Tue 09:25:40 PM 42.0058 -71.1828 21° North 269 310 6,600 -1,450 Descending Boston Center
Tue 09:26:40 PM 42.0700 -71.1453 23° Northeast 259 298 5,100 -1,223 Descending Boston Center
Tue 09:27:23 PM 42.1167 -71.1167 24° Northeast 242 278 4,500 -641 Descending KA90
Tue 09:28:23 PM 42.1667 -71.1000 14° North 182 209 4,000 -600 Descending KA90
Tue 09:29:23 PM 42.2167 -71.0833 14° North 145 167 3,300 -800 Descending KA90
Tue 09:30:23 PM 42.2500 -71.0667 20° North 147 169 2,400 -900 Descending KA90

Login

Don't have an account? Register now (free) for customized features, flight alerts, and more!